KTUP/TUP METAR and TAF weather

Enter ICAO airport designator
Station Type Date Time Source
KTUP METAR 2022/05/23 13:20 UTC NOAA

KTUP 231320Z 34008KT 1 3/4SM BR OVC004 18/17 A3009 RMK AO2 T01830167 $


Station Type Date Time Source
KTUP Decoded METAR 2022/05/23 13:20 UTC NOAA

TUPELO REGIONAL AIRPORT, MS, United States (KTUP) 34-16N 88-46W 105M
May 23, 2022 - 09:20 AM EDT / 2022.05.23 1320 UTC
Wind: from the NNW (340 degrees) at 9 MPH (8 KT):0
Visibility: 1 3/4 mile(s):0
Sky conditions: overcast
Weather: mist
Temperature: 64.9 F (18.3 C)
Dew Point: 62.1 F (16.7 C)
Relative Humidity: 90%
Pressure (altimeter): 30.09 in. Hg (1018 hPa)
ob: KTUP 231320Z 34008KT 1 3/4SM BR OVC004 18/17 A3009 RMK AO2 T01830167
cycle: 13

Station Type Date Time Source
KTUP TAF 2022/05/23 13:58 UTC NOAA

TAF
AMD KTUP 231256Z 2313/2412 02010KT P6SM OVC007
TEMPO 2313/2315 5SM BR OVC004
FM231500 04010KT P6SM OVC012
FM231900 05010KT P6SM OVC025
FM240000 06005KT P6SM OVC035
FM240400 05005KT P6SM SCT040 BKN050

Example: see airport list